sensor_id;sensor_type;location;lat;lon;timestamp;temperature;humidity
51739;DHT22;37815;52.692;6.226;2023-06-22T00:01:58;23.10;81.90
51739;DHT22;37815;52.692;6.226;2023-06-22T00:06:58;23.10;82.00
51739;DHT22;37815;52.692;6.226;2023-06-22T00:11:59;23.00;81.90
51739;DHT22;37815;52.692;6.226;2023-06-22T00:16:59;23.00;82.00
51739;DHT22;37815;52.692;6.226;2023-06-22T00:22:00;23.00;82.00
51739;DHT22;37815;52.692;6.226;2023-06-22T00:27:01;23.00;82.20
51739;DHT22;37815;52.692;6.226;2023-06-22T00:32:01;22.90;82.10
51739;DHT22;37815;52.692;6.226;2023-06-22T00:37:02;22.90;82.20
51739;DHT22;37815;52.692;6.226;2023-06-22T00:42:03;22.90;82.20
51739;DHT22;37815;52.692;6.226;2023-06-22T00:47:04;22.90;82.30
51739;DHT22;37815;52.692;6.226;2023-06-22T00:52:06;22.80;82.30
51739;DHT22;37815;52.692;6.226;2023-06-22T00:57:15;22.80;82.40
51739;DHT22;37815;52.692;6.226;2023-06-22T01:02:18;22.80;82.50
51739;DHT22;37815;52.692;6.226;2023-06-22T01:12:53;22.80;82.80
51739;DHT22;37815;52.692;6.226;2023-06-22T01:17:56;22.70;82.60
51739;DHT22;37815;52.692;6.226;2023-06-22T01:33:44;22.70;83.00
51739;DHT22;37815;52.692;6.226;2023-06-22T01:38:47;22.60;82.90
51739;DHT22;37815;52.692;6.226;2023-06-22T01:43:48;22.60;83.00
51739;DHT22;37815;52.692;6.226;2023-06-22T01:48:50;22.60;83.10
51739;DHT22;37815;52.692;6.226;2023-06-22T01:53:51;22.50;83.00
51739;DHT22;37815;52.692;6.226;2023-06-22T01:59:17;22.50;83.10
51739;DHT22;37815;52.692;6.226;2023-06-22T02:04:27;22.50;83.30
51739;DHT22;37815;52.692;6.226;2023-06-22T02:09:29;22.50;83.30
51739;DHT22;37815;52.692;6.226;2023-06-22T02:14:33;22.40;83.20
51739;DHT22;37815;52.692;6.226;2023-06-22T02:19:38;22.40;83.30
51739;DHT22;37815;52.692;6.226;2023-06-22T02:24:42;22.40;83.40
51739;DHT22;37815;52.692;6.226;2023-06-22T02:29:42;22.40;83.40
51739;DHT22;37815;52.692;6.226;2023-06-22T02:34:43;22.30;83.40
51739;DHT22;37815;52.692;6.226;2023-06-22T02:39:47;22.30;83.50
51739;DHT22;37815;52.692;6.226;2023-06-22T02:44:48;22.30;83.50
51739;DHT22;37815;52.692;6.226;2023-06-22T02:49:49;22.30;83.50
51739;DHT22;37815;52.692;6.226;2023-06-22T02:54:49;22.20;83.50
51739;DHT22;37815;52.692;6.226;2023-06-22T02:59:50;22.20;83.50
51739;DHT22;37815;52.692;6.226;2023-06-22T03:04:51;22.20;83.60
51739;DHT22;37815;52.692;6.226;2023-06-22T03:09:53;22.20;83.70
51739;DHT22;37815;52.692;6.226;2023-06-22T03:14:54;22.10;83.60
51739;DHT22;37815;52.692;6.226;2023-06-22T03:19:55;22.10;83.70
51739;DHT22;37815;52.692;6.226;2023-06-22T03:24:55;22.10;83.70
51739;DHT22;37815;52.692;6.226;2023-06-22T03:29:57;22.00;83.70
51739;DHT22;37815;52.692;6.226;2023-06-22T03:34:58;22.10;83.70
51739;DHT22;37815;52.692;6.226;2023-06-22T03:39:59;22.00;83.70
51739;DHT22;37815;52.692;6.226;2023-06-22T03:44:59;22.00;83.80
51739;DHT22;37815;52.692;6.226;2023-06-22T03:50:01;22.00;83.80
51739;DHT22;37815;52.692;6.226;2023-06-22T03:55:04;22.00;83.80
51739;DHT22;37815;52.692;6.226;2023-06-22T04:00:05;22.00;83.90
51739;DHT22;37815;52.692;6.226;2023-06-22T04:05:06;21.90;83.80
51739;DHT22;37815;52.692;6.226;2023-06-22T04:10:07;21.90;83.80
51739;DHT22;37815;52.692;6.226;2023-06-22T04:15:08;21.90;83.80
51739;DHT22;37815;52.692;6.226;2023-06-22T04:20:09;21.90;83.80
51739;DHT22;37815;52.692;6.226;2023-06-22T04:25:10;21.90;83.90
51739;DHT22;37815;52.692;6.226;2023-06-22T04:30:10;21.90;83.90
51739;DHT22;37815;52.692;6.226;2023-06-22T04:35:12;21.80;83.80
51739;DHT22;37815;52.692;6.226;2023-06-22T04:40:16;21.80;83.80
51739;DHT22;37815;52.692;6.226;2023-06-22T04:45:16;21.80;83.80
51739;DHT22;37815;52.692;6.226;2023-06-22T04:50:17;21.80;83.90
51739;DHT22;37815;52.692;6.226;2023-06-22T04:55:21;21.80;83.80
51739;DHT22;37815;52.692;6.226;2023-06-22T05:00:22;21.80;83.80
51739;DHT22;37815;52.692;6.226;2023-06-22T05:05:24;21.80;83.90
51739;DHT22;37815;52.692;6.226;2023-06-22T05:10:25;21.80;83.90
51739;DHT22;37815;52.692;6.226;2023-06-22T05:15:25;21.70;83.90
51739;DHT22;37815;52.692;6.226;2023-06-22T05:20:30;21.70;83.90
51739;DHT22;37815;52.692;6.226;2023-06-22T05:25:31;21.70;83.80
51739;DHT22;37815;52.692;6.226;2023-06-22T05:30:33;21.70;83.80
51739;DHT22;37815;52.692;6.226;2023-06-22T05:35:33;21.70;84.00
51739;DHT22;37815;52.692;6.226;2023-06-22T05:40:34;21.70;83.80
51739;DHT22;37815;52.692;6.226;2023-06-22T05:45:34;21.80;83.90
51739;DHT22;37815;52.692;6.226;2023-06-22T05:50:37;21.70;83.90
51739;DHT22;37815;52.692;6.226;2023-06-22T05:55:37;21.70;83.80
51739;DHT22;37815;52.692;6.226;2023-06-22T06:00:38;21.70;83.90
51739;DHT22;37815;52.692;6.226;2023-06-22T06:05:39;21.70;83.90
51739;DHT22;37815;52.692;6.226;2023-06-22T06:10:40;21.70;83.80
51739;DHT22;37815;52.692;6.226;2023-06-22T06:15:41;21.70;83.80
51739;DHT22;37815;52.692;6.226;2023-06-22T06:20:41;21.80;83.90
51739;DHT22;37815;52.692;6.226;2023-06-22T06:25:42;21.80;83.70
51739;DHT22;37815;52.692;6.226;2023-06-22T06:30:43;21.70;84.40
51739;DHT22;37815;52.692;6.226;2023-06-22T06:35:43;21.50;86.70
51739;DHT22;37815;52.692;6.226;2023-06-22T06:40:44;21.20;88.60
51739;DHT22;37815;52.692;6.226;2023-06-22T06:45:45;21.00;89.90
51739;DHT22;37815;52.692;6.226;2023-06-22T06:50:46;20.90;90.70
51739;DHT22;37815;52.692;6.226;2023-06-22T06:55:47;20.70;91.50
51739;DHT22;37815;52.692;6.226;2023-06-22T07:00:47;20.70;91.60
51739;DHT22;37815;52.692;6.226;2023-06-22T07:05:48;20.80;91.60
51739;DHT22;37815;52.692;6.226;2023-06-22T07:10:48;20.80;91.90
51739;DHT22;37815;52.692;6.226;2023-06-22T07:15:49;20.80;92.10
51739;DHT22;37815;52.692;6.226;2023-06-22T07:20:50;20.90;92.40
51739;DHT22;37815;52.692;6.226;2023-06-22T07:25:50;21.00;92.30
51739;DHT22;37815;52.692;6.226;2023-06-22T07:30:51;21.10;92.20
51739;DHT22;37815;52.692;6.226;2023-06-22T07:35:52;21.20;92.30
51739;DHT22;37815;52.692;6.226;2023-06-22T07:40:52;21.10;92.30
51739;DHT22;37815;52.692;6.226;2023-06-22T07:45:53;21.20;92.20
51739;DHT22;37815;52.692;6.226;2023-06-22T07:50:55;21.30;92.40
51739;DHT22;37815;52.692;6.226;2023-06-22T07:55:55;21.30;92.30
51739;DHT22;37815;52.692;6.226;2023-06-22T08:00:56;21.40;92.30
51739;DHT22;37815;52.692;6.226;2023-06-22T08:05:56;21.40;92.30
51739;DHT22;37815;52.692;6.226;2023-06-22T08:10:57;21.50;92.40
51739;DHT22;37815;52.692;6.226;2023-06-22T08:15:58;21.60;92.50
51739;DHT22;37815;52.692;6.226;2023-06-22T08:20:59;21.60;92.40
51739;DHT22;37815;52.692;6.226;2023-06-22T08:26:00;21.80;92.30
51739;DHT22;37815;52.692;6.226;2023-06-22T08:31:02;21.90;92.10
51739;DHT22;37815;52.692;6.226;2023-06-22T08:36:03;22.10;92.00
51739;DHT22;37815;52.692;6.226;2023-06-22T08:41:04;22.20;91.90
51739;DHT22;37815;52.692;6.226;2023-06-22T08:46:05;22.30;91.60
51739;DHT22;37815;52.692;6.226;2023-06-22T08:51:06;22.40;91.90
51739;DHT22;37815;52.692;6.226;2023-06-22T08:56:06;22.40;91.60
51739;DHT22;37815;52.692;6.226;2023-06-22T09:01:07;22.50;91.40
51739;DHT22;37815;52.692;6.226;2023-06-22T09:06:08;22.60;91.30
51739;DHT22;37815;52.692;6.226;2023-06-22T09:11:09;22.70;91.30
51739;DHT22;37815;52.692;6.226;2023-06-22T09:16:10;22.70;91.20
51739;DHT22;37815;52.692;6.226;2023-06-22T09:21:12;22.80;91.10
51739;DHT22;37815;52.692;6.226;2023-06-22T09:26:12;22.90;91.00
51739;DHT22;37815;52.692;6.226;2023-06-22T09:31:13;23.00;90.80
51739;DHT22;37815;52.692;6.226;2023-06-22T09:36:14;23.10;90.80
51739;DHT22;37815;52.692;6.226;2023-06-22T09:41:16;23.30;90.60
51739;DHT22;37815;52.692;6.226;2023-06-22T09:46:17;23.40;90.20
51739;DHT22;37815;52.692;6.226;2023-06-22T09:51:17;23.50;90.10
51739;DHT22;37815;52.692;6.226;2023-06-22T09:56:20;23.60;89.80
51739;DHT22;37815;52.692;6.226;2023-06-22T10:01:20;23.60;89.20
51739;DHT22;37815;52.692;6.226;2023-06-22T10:06:22;23.70;88.90
51739;DHT22;37815;52.692;6.226;2023-06-22T10:11:22;23.80;88.50
51739;DHT22;37815;52.692;6.226;2023-06-22T10:16:32;24.00;88.00
51739;DHT22;37815;52.692;6.226;2023-06-22T10:21:33;24.00;87.00
51739;DHT22;37815;52.692;6.226;2023-06-22T10:26:35;24.10;87.50
51739;DHT22;37815;52.692;6.226;2023-06-22T10:31:36;24.20;86.20
51739;DHT22;37815;52.692;6.226;2023-06-22T10:36:37;24.20;86.30
51739;DHT22;37815;52.692;6.226;2023-06-22T10:41:38;24.30;85.50
51739;DHT22;37815;52.692;6.226;2023-06-22T10:46:39;24.40;86.00
51739;DHT22;37815;52.692;6.226;2023-06-22T10:51:40;24.40;85.60
51739;DHT22;37815;52.692;6.226;2023-06-22T10:56:40;24.40;85.20
51739;DHT22;37815;52.692;6.226;2023-06-22T11:01:41;24.40;84.60
51739;DHT22;37815;52.692;6.226;2023-06-22T11:06:42;24.40;84.30
51739;DHT22;37815;52.692;6.226;2023-06-22T11:11:42;24.40;84.30
51739;DHT22;37815;52.692;6.226;2023-06-22T11:16:43;24.50;84.40
51739;DHT22;37815;52.692;6.226;2023-06-22T11:21:44;24.50;84.30
51739;DHT22;37815;52.692;6.226;2023-06-22T11:26:44;24.50;84.20
51739;DHT22;37815;52.692;6.226;2023-06-22T11:31:45;24.50;83.80
51739;DHT22;37815;52.692;6.226;2023-06-22T11:36:45;24.50;83.40
51739;DHT22;37815;52.692;6.226;2023-06-22T11:41:48;24.60;83.30
51739;DHT22;37815;52.692;6.226;2023-06-22T11:46:49;24.60;83.40
51739;DHT22;37815;52.692;6.226;2023-06-22T11:51:49;24.60;83.20
51739;DHT22;37815;52.692;6.226;2023-06-22T11:56:50;24.60;83.10
51739;DHT22;37815;52.692;6.226;2023-06-22T12:01:50;24.50;83.00
51739;DHT22;37815;52.692;6.226;2023-06-22T12:06:52;24.60;82.60
51739;DHT22;37815;52.692;6.226;2023-06-22T12:11:52;24.50;82.70
51739;DHT22;37815;52.692;6.226;2023-06-22T12:16:53;24.50;83.10
51739;DHT22;37815;52.692;6.226;2023-06-22T12:21:53;24.40;83.00
51739;DHT22;37815;52.692;6.226;2023-06-22T12:26:54;24.40;82.60
51739;DHT22;37815;52.692;6.226;2023-06-22T12:31:55;24.40;82.40
51739;DHT22;37815;52.692;6.226;2023-06-22T12:36:55;24.40;82.20
51739;DHT22;37815;52.692;6.226;2023-06-22T12:41:56;24.50;82.30
51739;DHT22;37815;52.692;6.226;2023-06-22T12:46:56;24.40;82.20
51739;DHT22;37815;52.692;6.226;2023-06-22T12:51:57;24.40;82.40
51739;DHT22;37815;52.692;6.226;2023-06-22T12:56:58;24.30;82.70
51739;DHT22;37815;52.692;6.226;2023-06-22T13:01:58;24.20;82.70
51739;DHT22;37815;52.692;6.226;2023-06-22T13:06:59;24.20;82.90
51739;DHT22;37815;52.692;6.226;2023-06-22T13:12:00;24.10;83.00
51739;DHT22;37815;52.692;6.226;2023-06-22T13:17:00;24.10;82.90
51739;DHT22;37815;52.692;6.226;2023-06-22T13:22:01;24.10;82.70
51739;DHT22;37815;52.692;6.226;2023-06-22T13:27:03;24.00;82.60
51739;DHT22;37815;52.692;6.226;2023-06-22T13:32:04;24.00;82.80
51739;DHT22;37815;52.692;6.226;2023-06-22T13:37:05;23.90;83.00
51739;DHT22;37815;52.692;6.226;2023-06-22T13:42:06;23.80;83.30
51739;DHT22;37815;52.692;6.226;2023-06-22T13:47:07;23.80;83.80
51739;DHT22;37815;52.692;6.226;2023-06-22T13:52:08;23.80;84.40
51739;DHT22;37815;52.692;6.226;2023-06-22T13:57:10;23.70;84.90
51739;DHT22;37815;52.692;6.226;2023-06-22T14:02:11;23.70;85.40
51739;DHT22;37815;52.692;6.226;2023-06-22T14:07:11;23.70;85.60
51739;DHT22;37815;52.692;6.226;2023-06-22T14:12:12;23.60;85.80
51739;DHT22;37815;52.692;6.226;2023-06-22T14:17:15;23.60;86.60
51739;DHT22;37815;52.692;6.226;2023-06-22T14:22:16;23.60;86.80
51739;DHT22;37815;52.692;6.226;2023-06-22T14:27:17;23.60;87.10
51739;DHT22;37815;52.692;6.226;2023-06-22T14:32:17;23.60;87.50
51739;DHT22;37815;52.692;6.226;2023-06-22T14:37:18;23.60;88.00
51739;DHT22;37815;52.692;6.226;2023-06-22T14:42:18;23.70;88.40
51739;DHT22;37815;52.692;6.226;2023-06-22T14:47:19;23.70;88.80
51739;DHT22;37815;52.692;6.226;2023-06-22T14:52:21;23.60;89.00
51739;DHT22;37815;52.692;6.226;2023-06-22T14:57:22;23.60;89.20
51739;DHT22;37815;52.692;6.226;2023-06-22T15:02:29;23.50;89.50
51739;DHT22;37815;52.692;6.226;2023-06-22T15:07:29;23.50;90.00
51739;DHT22;37815;52.692;6.226;2023-06-22T15:12:30;23.40;90.20
51739;DHT22;37815;52.692;6.226;2023-06-22T15:17:30;23.40;90.30
51739;DHT22;37815;52.692;6.226;2023-06-22T15:22:31;23.40;90.40
51739;DHT22;37815;52.692;6.226;2023-06-22T15:27:32;23.30;90.50
51739;DHT22;37815;52.692;6.226;2023-06-22T15:32:32;23.30;90.80
51739;DHT22;37815;52.692;6.226;2023-06-22T15:37:33;23.30;91.10
51739;DHT22;37815;52.692;6.226;2023-06-22T15:42:33;23.30;91.40
51739;DHT22;37815;52.692;6.226;2023-06-22T15:47:35;23.20;91.50
51739;DHT22;37815;52.692;6.226;2023-06-22T15:52:35;23.20;91.60
51739;DHT22;37815;52.692;6.226;2023-06-22T15:57:36;23.20;91.70
51739;DHT22;37815;52.692;6.226;2023-06-22T16:02:37;23.20;91.90
51739;DHT22;37815;52.692;6.226;2023-06-22T16:07:37;23.10;92.00
51739;DHT22;37815;52.692;6.226;2023-06-22T16:12:42;23.00;92.10
51739;DHT22;37815;52.692;6.226;2023-06-22T16:17:42;23.10;92.40
51739;DHT22;37815;52.692;6.226;2023-06-22T16:22:43;23.00;92.30
51739;DHT22;37815;52.692;6.226;2023-06-22T16:27:46;23.00;92.40
51739;DHT22;37815;52.692;6.226;2023-06-22T16:32:54;23.00;92.40
51739;DHT22;37815;52.692;6.226;2023-06-22T16:37:55;22.90;92.60
51739;DHT22;37815;52.692;6.226;2023-06-22T16:42:56;22.90;92.60
51739;DHT22;37815;52.692;6.226;2023-06-22T16:47:56;22.80;92.70
51739;DHT22;37815;52.692;6.226;2023-06-22T16:52:57;22.80;92.70
51739;DHT22;37815;52.692;6.226;2023-06-22T16:57:58;22.70;92.80
51739;DHT22;37815;52.692;6.226;2023-06-22T17:03:02;22.70;92.90
51739;DHT22;37815;52.692;6.226;2023-06-22T17:08:06;22.70;93.00
51739;DHT22;37815;52.692;6.226;2023-06-22T17:13:08;22.60;93.00
51739;DHT22;37815;52.692;6.226;2023-06-22T17:18:09;22.60;93.00
51739;DHT22;37815;52.692;6.226;2023-06-22T17:23:10;22.60;93.00
51739;DHT22;37815;52.692;6.226;2023-06-22T17:28:11;22.60;92.90
51739;DHT22;37815;52.692;6.226;2023-06-22T17:33:14;22.50;92.90
51739;DHT22;37815;52.692;6.226;2023-06-22T17:38:20;22.50;92.90
51739;DHT22;37815;52.692;6.226;2023-06-22T17:43:21;22.50;92.90
51739;DHT22;37815;52.692;6.226;2023-06-22T17:48:22;22.60;92.80
51739;DHT22;37815;52.692;6.226;2023-06-22T17:53:26;22.60;92.80
51739;DHT22;37815;52.692;6.226;2023-06-22T17:58:27;22.60;92.70
51739;DHT22;37815;52.692;6.226;2023-06-22T18:03:27;22.60;92.70
51739;DHT22;37815;52.692;6.226;2023-06-22T18:08:28;22.60;92.70
51739;DHT22;37815;52.692;6.226;2023-06-22T18:13:29;22.60;92.60
51739;DHT22;37815;52.692;6.226;2023-06-22T18:18:31;22.60;92.60
51739;DHT22;37815;52.692;6.226;2023-06-22T18:23:34;22.60;92.60
51739;DHT22;37815;52.692;6.226;2023-06-22T18:28:36;22.60;92.60
51739;DHT22;37815;52.692;6.226;2023-06-22T18:33:38;22.60;92.50
51739;DHT22;37815;52.692;6.226;2023-06-22T18:38:44;22.60;92.50
51739;DHT22;37815;52.692;6.226;2023-06-22T18:43:52;22.60;92.40
51739;DHT22;37815;52.692;6.226;2023-06-22T18:48:59;22.50;92.40
51739;DHT22;37815;52.692;6.226;2023-06-22T18:54:03;22.50;92.40
51739;DHT22;37815;52.692;6.226;2023-06-22T18:59:11;22.40;92.40
51739;DHT22;37815;52.692;6.226;2023-06-22T19:04:15;22.40;92.40
51739;DHT22;37815;52.692;6.226;2023-06-22T19:09:17;22.40;92.40
51739;DHT22;37815;52.692;6.226;2023-06-22T19:14:20;22.40;92.30
51739;DHT22;37815;52.692;6.226;2023-06-22T19:19:21;22.30;92.30
51739;DHT22;37815;52.692;6.226;2023-06-22T19:24:31;22.30;92.30
51739;DHT22;37815;52.692;6.226;2023-06-22T19:29:31;22.30;92.20
51739;DHT22;37815;52.692;6.226;2023-06-22T19:34:35;22.20;92.10
51739;DHT22;37815;52.692;6.226;2023-06-22T19:39:36;22.20;92.10
51739;DHT22;37815;52.692;6.226;2023-06-22T19:44:36;22.20;92.10
51739;DHT22;37815;52.692;6.226;2023-06-22T19:49:37;22.20;92.00
51739;DHT22;37815;52.692;6.226;2023-06-22T19:54:40;22.10;92.00
51739;DHT22;37815;52.692;6.226;2023-06-22T19:59:41;22.10;91.90
51739;DHT22;37815;52.692;6.226;2023-06-22T20:04:44;22.10;91.90
51739;DHT22;37815;52.692;6.226;2023-06-22T20:09:45;22.10;91.80
51739;DHT22;37815;52.692;6.226;2023-06-22T20:14:46;22.10;91.80
51739;DHT22;37815;52.692;6.226;2023-06-22T20:19:53;22.00;91.70
51739;DHT22;37815;52.692;6.226;2023-06-22T20:24:54;22.10;91.70
51739;DHT22;37815;52.692;6.226;2023-06-22T20:29:54;22.00;91.60
51739;DHT22;37815;52.692;6.226;2023-06-22T20:34:55;22.10;91.60
51739;DHT22;37815;52.692;6.226;2023-06-22T20:39:56;22.00;91.60
51739;DHT22;37815;52.692;6.226;2023-06-22T20:44:56;22.00;91.60
51739;DHT22;37815;52.692;6.226;2023-06-22T20:49:58;22.00;91.60
51739;DHT22;37815;52.692;6.226;2023-06-22T20:55:02;22.00;91.50
51739;DHT22;37815;52.692;6.226;2023-06-22T21:00:02;21.90;91.50
51739;DHT22;37815;52.692;6.226;2023-06-22T21:05:07;21.90;91.50
51739;DHT22;37815;52.692;6.226;2023-06-22T21:10:08;21.90;91.50
51739;DHT22;37815;52.692;6.226;2023-06-22T21:15:09;21.90;91.50
51739;DHT22;37815;52.692;6.226;2023-06-22T21:20:16;21.80;91.50
51739;DHT22;37815;52.692;6.226;2023-06-22T21:25:17;21.80;91.50
51739;DHT22;37815;52.692;6.226;2023-06-22T21:30:18;21.80;91.50
51739;DHT22;37815;52.692;6.226;2023-06-22T21:35:18;21.80;91.50
51739;DHT22;37815;52.692;6.226;2023-06-22T21:40:19;21.80;91.50
51739;DHT22;37815;52.692;6.226;2023-06-22T21:45:19;21.80;91.50
51739;DHT22;37815;52.692;6.226;2023-06-22T21:50:20;21.70;91.50
51739;DHT22;37815;52.692;6.226;2023-06-22T21:55:21;21.70;91.50
51739;DHT22;37815;52.692;6.226;2023-06-22T22:00:21;21.70;91.50
51739;DHT22;37815;52.692;6.226;2023-06-22T22:05:22;21.70;91.50
51739;DHT22;37815;52.692;6.226;2023-06-22T22:10:23;21.70;91.50
51739;DHT22;37815;52.692;6.226;2023-06-22T22:15:23;21.60;91.40
51739;DHT22;37815;52.692;6.226;2023-06-22T22:20:24;21.60;91.40
51739;DHT22;37815;52.692;6.226;2023-06-22T22:25:25;21.60;91.40
51739;DHT22;37815;52.692;6.226;2023-06-22T22:30:26;21.60;91.40
51739;DHT22;37815;52.692;6.226;2023-06-22T22:35:27;21.60;91.40
51739;DHT22;37815;52.692;6.226;2023-06-22T22:40:28;21.50;91.40
51739;DHT22;37815;52.692;6.226;2023-06-22T22:45:28;21.50;91.30
51739;DHT22;37815;52.692;6.226;2023-06-22T22:50:29;21.50;91.40
51739;DHT22;37815;52.692;6.226;2023-06-22T22:55:30;21.50;91.30
51739;DHT22;37815;52.692;6.226;2023-06-22T23:00:32;21.50;91.40
51739;DHT22;37815;52.692;6.226;2023-06-22T23:05:32;21.30;91.30
51739;DHT22;37815;52.692;6.226;2023-06-22T23:10:33;21.40;91.40
51739;DHT22;37815;52.692;6.226;2023-06-22T23:15:34;21.40;91.40
51739;DHT22;37815;52.692;6.226;2023-06-22T23:20:35;21.40;91.30
51739;DHT22;37815;52.692;6.226;2023-06-22T23:25:36;21.40;91.30
51739;DHT22;37815;52.692;6.226;2023-06-22T23:30:37;21.40;91.40
51739;DHT22;37815;52.692;6.226;2023-06-22T23:35:38;21.30;91.40
51739;DHT22;37815;52.692;6.226;2023-06-22T23:40:40;21.30;91.40
51739;DHT22;37815;52.692;6.226;2023-06-22T23:45:41;21.30;91.40
51739;DHT22;37815;52.692;6.226;2023-06-22T23:50:42;21.30;91.30
51739;DHT22;37815;52.692;6.226;2023-06-22T23:55:42;21.30;91.40
